sensor_id;sensor_type;location;lat;lon;timestamp;pressure;altitude;pressure_sealevel;temperature;humidity
76260;BME280;65076;52.362;6.588;2023-10-09T00:01:02;101919.69;;;15.20;75.38
76260;BME280;65076;52.362;6.588;2023-10-09T00:06:09;101948.22;;;15.32;77.65
76260;BME280;65076;52.362;6.588;2023-10-09T00:11:11;101950.00;;;15.14;78.18
76260;BME280;65076;52.362;6.588;2023-10-09T00:16:23;101954.69;;;15.30;78.20
76260;BME280;65076;52.362;6.588;2023-10-09T00:21:33;101936.09;;;15.02;78.90
76260;BME280;65076;52.362;6.588;2023-10-09T00:24:07;101942.03;;;15.10;79.09
76260;BME280;65076;52.362;6.588;2023-10-09T00:31:55;101958.41;;;15.10;80.73
76260;BME280;65076;52.362;6.588;2023-10-09T00:42:09;101931.75;;;15.52;79.60
76260;BME280;65076;52.362;6.588;2023-10-09T00:47:23;101938.72;;;15.39;79.66
76260;BME280;65076;52.362;6.588;2023-10-09T00:52:38;101941.78;;;15.69;79.31
76260;BME280;65076;52.362;6.588;2023-10-09T00:57:45;101922.38;;;15.75;79.19
76260;BME280;65076;52.362;6.588;2023-10-09T01:05:31;101912.28;;;16.10;78.35
76260;BME280;65076;52.362;6.588;2023-10-09T01:10:43;101918.59;;;16.28;76.64
76260;BME280;65076;52.362;6.588;2023-10-09T01:15:47;101897.28;;;16.34;76.88
76260;BME280;65076;52.362;6.588;2023-10-09T01:18:24;101900.81;;;16.36;76.19
76260;BME280;65076;52.362;6.588;2023-10-09T01:26:14;101876.25;;;16.36;77.38
76260;BME280;65076;52.362;6.588;2023-10-09T01:33:47;101825.66;;;16.29;77.47
76260;BME280;65076;52.362;6.588;2023-10-09T01:36:22;101862.91;;;16.30;78.24
76260;BME280;65076;52.362;6.588;2023-10-09T01:46:46;101869.22;;;16.48;78.01
76260;BME280;65076;52.362;6.588;2023-10-09T01:51:58;101844.50;;;16.34;78.48
76260;BME280;65076;52.362;6.588;2023-10-09T01:59:39;101861.72;;;16.51;78.61
76260;BME280;65076;52.362;6.588;2023-10-09T02:04:43;101861.16;;;16.62;78.31
76260;BME280;65076;52.362;6.588;2023-10-09T02:07:14;101853.81;;;16.94;77.64
76260;BME280;65076;52.362;6.588;2023-10-09T02:15:06;101847.88;;;16.54;79.22
76260;BME280;65076;52.362;6.588;2023-10-09T02:22:51;101824.94;;;16.59;79.46
76260;BME280;65076;52.362;6.588;2023-10-09T02:27:54;101810.41;;;16.57;77.68
76260;BME280;65076;52.362;6.588;2023-10-09T02:30:28;101795.19;;;16.37;79.40
76260;BME280;65076;52.362;6.588;2023-10-09T02:38:12;101807.38;;;16.63;79.08
76260;BME280;65076;52.362;6.588;2023-10-09T02:43:14;101771.00;;;16.14;80.24
76260;BME280;65076;52.362;6.588;2023-10-09T02:45:50;101806.03;;;16.70;79.20
76260;BME280;65076;52.362;6.588;2023-10-09T02:53:29;101790.69;;;16.36;80.15
76260;BME280;65076;52.362;6.588;2023-10-09T02:58:31;101814.69;;;16.62;79.95
76260;BME280;65076;52.362;6.588;2023-10-09T03:01:31;101813.59;;;16.65;79.59
76260;BME280;65076;52.362;6.588;2023-10-09T03:06:38;101801.16;;;16.75;79.28
76260;BME280;65076;52.362;6.588;2023-10-09T03:11:49;101789.81;;;16.67;79.24
76260;BME280;65076;52.362;6.588;2023-10-09T03:16:53;101795.06;;;16.23;80.61
76260;BME280;65076;52.362;6.588;2023-10-09T03:21:54;101773.41;;;16.82;79.80
76260;BME280;65076;52.362;6.588;2023-10-09T03:24:29;101771.91;;;16.77;79.46
76260;BME280;65076;52.362;6.588;2023-10-09T03:32:05;101760.00;;;16.46;79.72
76260;BME280;65076;52.362;6.588;2023-10-09T03:37:06;101770.31;;;16.57;79.79
76260;BME280;65076;52.362;6.588;2023-10-09T03:45:03;101764.69;;;16.60;80.90
76260;BME280;65076;52.362;6.588;2023-10-09T03:52:48;101778.69;;;16.54;81.57
76260;BME280;65076;52.362;6.588;2023-10-09T03:57:48;101767.75;;;16.70;80.69
76260;BME280;65076;52.362;6.588;2023-10-09T04:00:30;101772.25;;;16.86;81.05
76260;BME280;65076;52.362;6.588;2023-10-09T04:08:15;101783.97;;;16.57;82.54
76260;BME280;65076;52.362;6.588;2023-10-09T04:15:58;101768.69;;;17.00;80.34
76260;BME280;65076;52.362;6.588;2023-10-09T04:21:07;101799.28;;;16.91;80.44
76260;BME280;65076;52.362;6.588;2023-10-09T04:23:58;101767.38;;;16.91;79.81
76260;BME280;65076;52.362;6.588;2023-10-09T04:32:08;101771.03;;;17.06;80.54
76260;BME280;65076;52.362;6.588;2023-10-09T04:37:18;101778.94;;;16.81;81.98
76260;BME280;65076;52.362;6.588;2023-10-09T04:40:08;101773.66;;;16.93;81.56
76260;BME280;65076;52.362;6.588;2023-10-09T04:48:16;101742.03;;;16.58;83.03
76260;BME280;65076;52.362;6.588;2023-10-09T04:53:32;101785.72;;;17.05;82.07
76260;BME280;65076;52.362;6.588;2023-10-09T04:58:43;101794.22;;;16.85;83.77
76260;BME280;65076;52.362;6.588;2023-10-09T05:03:52;101802.56;;;16.98;84.03
76260;BME280;65076;52.362;6.588;2023-10-09T05:06:26;101801.44;;;16.86;83.49
76260;BME280;65076;52.362;6.588;2023-10-09T05:09:26;101811.47;;;16.85;83.89
76260;BME280;65076;52.362;6.588;2023-10-09T05:17:39;101783.38;;;17.13;82.32
76260;BME280;65076;52.362;6.588;2023-10-09T05:22:54;101802.50;;;16.83;84.14
76260;BME280;65076;52.362;6.588;2023-10-09T05:28:22;101817.81;;;16.86;84.75
76260;BME280;65076;52.362;6.588;2023-10-09T05:33:28;101826.13;;;17.00;84.17
76260;BME280;65076;52.362;6.588;2023-10-09T05:41:05;101825.72;;;17.06;83.85
76260;BME280;65076;52.362;6.588;2023-10-09T05:48:57;101824.44;;;17.27;82.23
76260;BME280;65076;52.362;6.588;2023-10-09T05:54:08;101794.03;;;16.88;83.65
76260;BME280;65076;52.362;6.588;2023-10-09T05:57:00;101841.50;;;17.17;83.22
76260;BME280;65076;52.362;6.588;2023-10-09T06:07:24;101811.53;;;17.15;83.97
76260;BME280;65076;52.362;6.588;2023-10-09T06:12:48;101812.41;;;17.16;83.85
76260;BME280;65076;52.362;6.588;2023-10-09T06:15:36;101831.84;;;17.11;85.60
76260;BME280;65076;52.362;6.588;2023-10-09T06:23:50;101841.47;;;17.32;84.19
76260;BME280;65076;52.362;6.588;2023-10-09T06:31:36;101795.41;;;17.55;83.74
76260;BME280;65076;52.362;6.588;2023-10-09T06:36:55;101834.66;;;17.40;84.46
76260;BME280;65076;52.362;6.588;2023-10-09T06:39:37;101837.88;;;17.62;83.82
76260;BME280;65076;52.362;6.588;2023-10-09T06:53:18;101823.53;;;17.72;83.35
76260;BME280;65076;52.362;6.588;2023-10-09T06:58:24;101833.97;;;17.80;82.39
76260;BME280;65076;52.362;6.588;2023-10-09T07:03:38;101831.75;;;17.87;83.24
76260;BME280;65076;52.362;6.588;2023-10-09T07:11:17;101850.91;;;18.01;82.84
76260;BME280;65076;52.362;6.588;2023-10-09T07:14:15;101829.22;;;18.12;81.89
76260;BME280;65076;52.362;6.588;2023-10-09T07:22:27;101805.75;;;17.94;82.06
76260;BME280;65076;52.362;6.588;2023-10-09T07:30:22;101826.47;;;17.98;82.80
76260;BME280;65076;52.362;6.588;2023-10-09T07:38:19;101840.06;;;17.85;82.67
76260;BME280;65076;52.362;6.588;2023-10-09T07:43:30;101843.13;;;18.09;83.56
76260;BME280;65076;52.362;6.588;2023-10-09T07:53:38;101832.25;;;18.21;81.99
76260;BME280;65076;52.362;6.588;2023-10-09T07:56:15;101845.94;;;18.21;83.43
76260;BME280;65076;52.362;6.588;2023-10-09T08:03:53;101837.72;;;18.21;83.06
76260;BME280;65076;52.362;6.588;2023-10-09T08:09:13;101820.03;;;18.13;82.96
76260;BME280;65076;52.362;6.588;2023-10-09T08:14:38;101811.22;;;18.36;82.33
76260;BME280;65076;52.362;6.588;2023-10-09T08:19:51;101810.03;;;18.54;81.42
76260;BME280;65076;52.362;6.588;2023-10-09T08:27:28;101824.78;;;18.66;81.54
76260;BME280;65076;52.362;6.588;2023-10-09T08:30:19;101814.47;;;18.70;80.86
76260;BME280;65076;52.362;6.588;2023-10-09T08:40:39;101790.63;;;19.11;79.28
76260;BME280;65076;52.362;6.588;2023-10-09T08:50:50;101829.56;;;19.03;80.53
76260;BME280;65076;52.362;6.588;2023-10-09T08:55:56;101849.41;;;19.34;79.22
76260;BME280;65076;52.362;6.588;2023-10-09T09:03:39;101875.25;;;18.90;81.25
76260;BME280;65076;52.362;6.588;2023-10-09T09:08:47;101858.91;;;18.89;80.65
76260;BME280;65076;52.362;6.588;2023-10-09T09:14:01;101886.78;;;18.95;82.33
76260;BME280;65076;52.362;6.588;2023-10-09T09:21:50;101924.41;;;19.34;79.99
76260;BME280;65076;52.362;6.588;2023-10-09T09:32:26;101919.38;;;19.14;80.95
76260;BME280;65076;52.362;6.588;2023-10-09T09:37:34;101910.00;;;19.45;79.74
76260;BME280;65076;52.362;6.588;2023-10-09T09:42:54;101906.44;;;19.70;79.09
76260;BME280;65076;52.362;6.588;2023-10-09T09:48:02;101910.75;;;19.20;80.00
76260;BME280;65076;52.362;6.588;2023-10-09T09:50:39;101904.53;;;19.31;79.57
76260;BME280;65076;52.362;6.588;2023-10-09T10:03:27;101879.53;;;19.75;77.68
76260;BME280;65076;52.362;6.588;2023-10-09T10:08:48;101899.34;;;20.18;76.38
76260;BME280;65076;52.362;6.588;2023-10-09T10:11:41;101908.34;;;19.82;77.78
76260;BME280;65076;52.362;6.588;2023-10-09T10:20:02;101908.03;;;20.12;76.10
76260;BME280;65076;52.362;6.588;2023-10-09T10:28:18;101918.25;;;20.10;76.01
76260;BME280;65076;52.362;6.588;2023-10-09T10:38:39;101907.59;;;20.18;75.58
76260;BME280;65076;52.362;6.588;2023-10-09T10:48:59;101906.06;;;20.14;74.77
76260;BME280;65076;52.362;6.588;2023-10-09T10:56:49;101921.16;;;20.34;74.44
76260;BME280;65076;52.362;6.588;2023-10-09T11:01:53;101908.91;;;20.12;74.04
76260;BME280;65076;52.362;6.588;2023-10-09T11:04:33;101918.84;;;20.40;73.64
76260;BME280;65076;52.362;6.588;2023-10-09T11:09:51;101916.22;;;20.51;72.69
76260;BME280;65076;52.362;6.588;2023-10-09T11:17:39;101921.88;;;20.23;73.72
76260;BME280;65076;52.362;6.588;2023-10-09T11:20:14;101919.91;;;20.76;72.60
76260;BME280;65076;52.362;6.588;2023-10-09T11:25:29;101897.94;;;20.50;72.85
76260;BME280;65076;52.362;6.588;2023-10-09T11:28:00;101885.91;;;20.26;73.25
76260;BME280;65076;52.362;6.588;2023-10-09T11:38:23;101874.72;;;20.67;71.63
76260;BME280;65076;52.362;6.588;2023-10-09T11:46:08;101914.97;;;21.17;69.97
76260;BME280;65076;52.362;6.588;2023-10-09T11:51:12;101924.44;;;21.13;70.21
76260;BME280;65076;52.362;6.588;2023-10-09T11:56:22;101916.44;;;21.34;70.40
76260;BME280;65076;52.362;6.588;2023-10-09T12:03:56;101919.41;;;20.94;70.80
76260;BME280;65076;52.362;6.588;2023-10-09T12:08:56;101911.91;;;21.09;70.28
76260;BME280;65076;52.362;6.588;2023-10-09T12:11:31;101939.66;;;21.42;70.41
76260;BME280;65076;52.362;6.588;2023-10-09T12:29:11;101912.56;;;20.38;75.01
76260;BME280;65076;52.362;6.588;2023-10-09T12:56:41;101901.88;;;20.71;74.47
76260;BME280;65076;52.362;6.588;2023-10-09T12:59:27;101896.81;;;20.65;74.48
76260;BME280;65076;52.362;6.588;2023-10-09T13:07:03;101898.97;;;20.86;73.93
76260;BME280;65076;52.362;6.588;2023-10-09T13:14:35;101894.53;;;20.96;72.74
76260;BME280;65076;52.362;6.588;2023-10-09T13:19:36;101893.63;;;20.71;73.02
76260;BME280;65076;52.362;6.588;2023-10-09T13:27:24;101913.09;;;21.65;71.38
76260;BME280;65076;52.362;6.588;2023-10-09T13:35:05;101908.78;;;21.85;70.42
76260;BME280;65076;52.362;6.588;2023-10-09T13:42:41;101877.03;;;21.33;70.88
76260;BME280;65076;52.362;6.588;2023-10-09T13:47:41;101869.75;;;21.67;69.28
76260;BME280;65076;52.362;6.588;2023-10-09T13:50:19;101893.75;;;21.89;69.20
76260;BME280;65076;52.362;6.588;2023-10-09T14:03:02;101872.16;;;21.37;71.16
76260;BME280;65076;52.362;6.588;2023-10-09T14:05:47;101897.56;;;21.99;69.04
76260;BME280;65076;52.362;6.588;2023-10-09T14:15:58;101873.38;;;20.73;73.68
76260;BME280;65076;52.362;6.588;2023-10-09T14:21:08;101900.66;;;20.76;73.01
76260;BME280;65076;52.362;6.588;2023-10-09T14:31:13;101896.19;;;20.49;74.70
76260;BME280;65076;52.362;6.588;2023-10-09T14:38:53;101897.13;;;20.73;73.88
76260;BME280;65076;52.362;6.588;2023-10-09T14:41:29;101893.31;;;21.00;72.24
76260;BME280;65076;52.362;6.588;2023-10-09T14:46:28;101888.31;;;21.05;73.49
76260;BME280;65076;52.362;6.588;2023-10-09T14:54:06;101904.47;;;20.86;73.04
76260;BME280;65076;52.362;6.588;2023-10-09T15:01:45;101896.03;;;21.12;71.26
76260;BME280;65076;52.362;6.588;2023-10-09T15:04:21;101902.63;;;21.10;71.48
76260;BME280;65076;52.362;6.588;2023-10-09T15:14:26;101905.66;;;20.94;72.60
76260;BME280;65076;52.362;6.588;2023-10-09T15:19:35;101910.09;;;21.21;71.56
76260;BME280;65076;52.362;6.588;2023-10-09T15:22:06;101907.25;;;21.09;71.73
76260;BME280;65076;52.362;6.588;2023-10-09T15:29:47;101899.66;;;20.77;73.02
76260;BME280;65076;52.362;6.588;2023-10-09T15:37:18;101911.19;;;20.82;73.89
76260;BME280;65076;52.362;6.588;2023-10-09T15:42:22;101885.13;;;20.75;74.07
76260;BME280;65076;52.362;6.588;2023-10-09T15:52:30;101895.09;;;20.39;75.47
76260;BME280;65076;52.362;6.588;2023-10-09T15:57:33;101914.25;;;20.41;76.84
76260;BME280;65076;52.362;6.588;2023-10-09T16:02:35;101899.25;;;20.19;76.06
76260;BME280;65076;52.362;6.588;2023-10-09T16:05:14;101930.06;;;20.50;76.04
76260;BME280;65076;52.362;6.588;2023-10-09T16:12:52;101922.41;;;20.79;73.70
76260;BME280;65076;52.362;6.588;2023-10-09T16:20:29;101933.22;;;20.82;74.11
76260;BME280;65076;52.362;6.588;2023-10-09T16:25:32;101919.84;;;20.39;76.50
76260;BME280;65076;52.362;6.588;2023-10-09T16:30:38;101941.59;;;20.29;76.38
76260;BME280;65076;52.362;6.588;2023-10-09T16:35:48;101948.00;;;20.55;75.18
76260;BME280;65076;52.362;6.588;2023-10-09T16:40:54;101957.06;;;20.18;78.83
76260;BME280;65076;52.362;6.588;2023-10-09T16:48:32;101959.66;;;19.94;79.16
76260;BME280;65076;52.362;6.588;2023-10-09T16:53:35;101965.16;;;19.94;79.75
76260;BME280;65076;52.362;6.588;2023-10-09T17:01:15;101981.63;;;19.81;80.46
76260;BME280;65076;52.362;6.588;2023-10-09T17:06:21;101987.59;;;20.01;79.07
76260;BME280;65076;52.362;6.588;2023-10-09T17:11:28;101986.28;;;19.94;79.29
76260;BME280;65076;52.362;6.588;2023-10-09T17:19:05;101992.72;;;20.32;77.64
76260;BME280;65076;52.362;6.588;2023-10-09T17:24:09;102003.53;;;20.48;77.75
76260;BME280;65076;52.362;6.588;2023-10-09T17:29:11;101997.25;;;20.33;77.88
76260;BME280;65076;52.362;6.588;2023-10-09T17:31:42;101997.56;;;20.41;77.81
76260;BME280;65076;52.362;6.588;2023-10-09T17:34:12;101984.16;;;20.37;76.98
76260;BME280;65076;52.362;6.588;2023-10-09T17:41:52;101995.69;;;20.29;78.23
76260;BME280;65076;52.362;6.588;2023-10-09T17:44:24;101986.63;;;19.75;78.97
76260;BME280;65076;52.362;6.588;2023-10-09T17:49:28;102008.34;;;20.32;77.32
76260;BME280;65076;52.362;6.588;2023-10-09T17:52:05;101986.75;;;20.13;78.03
76260;BME280;65076;52.362;6.588;2023-10-09T17:59:43;102019.34;;;20.05;76.82
76260;BME280;65076;52.362;6.588;2023-10-09T18:04:46;102019.34;;;19.65;79.47
76260;BME280;65076;52.362;6.588;2023-10-09T18:09:49;101988.31;;;19.51;78.12
76260;BME280;65076;52.362;6.588;2023-10-09T18:12:25;102016.22;;;19.84;77.42
76260;BME280;65076;52.362;6.588;2023-10-09T18:22:35;102019.97;;;19.83;77.15
76260;BME280;65076;52.362;6.588;2023-10-09T18:25:15;102007.63;;;19.76;77.17
76260;BME280;65076;52.362;6.588;2023-10-09T18:27:51;102012.31;;;20.01;75.48
76260;BME280;65076;52.362;6.588;2023-10-09T18:35:28;101993.94;;;19.88;76.02
76260;BME280;65076;52.362;6.588;2023-10-09T18:45:38;102025.88;;;20.04;76.12
76260;BME280;65076;52.362;6.588;2023-10-09T18:50:40;102031.06;;;20.21;75.40
76260;BME280;65076;52.362;6.588;2023-10-09T18:53:16;102034.78;;;20.07;74.25
76260;BME280;65076;52.362;6.588;2023-10-09T18:58:20;102021.06;;;19.80;75.63
76260;BME280;65076;52.362;6.588;2023-10-09T19:03:27;102016.44;;;19.54;76.81
76260;BME280;65076;52.362;6.588;2023-10-09T19:08:37;102028.81;;;19.74;76.20
76260;BME280;65076;52.362;6.588;2023-10-09T19:13:38;102030.94;;;19.56;76.74
76260;BME280;65076;52.362;6.588;2023-10-09T19:21:16;102028.34;;;19.94;74.01
76260;BME280;65076;52.362;6.588;2023-10-09T19:26:23;102042.47;;;19.75;74.98
76260;BME280;65076;52.362;6.588;2023-10-09T19:34:13;102036.31;;;19.72;75.49
76260;BME280;65076;52.362;6.588;2023-10-09T19:39:21;102002.72;;;19.54;75.58
76260;BME280;65076;52.362;6.588;2023-10-09T19:44:21;102033.97;;;20.05;74.55
76260;BME280;65076;52.362;6.588;2023-10-09T19:46:58;102045.09;;;20.04;74.01
76260;BME280;65076;52.362;6.588;2023-10-09T19:54:34;102031.47;;;19.75;74.98
76260;BME280;65076;52.362;6.588;2023-10-09T19:59:39;102010.44;;;19.88;74.25
76260;BME280;65076;52.362;6.588;2023-10-09T20:02:15;102038.75;;;19.89;73.83
76260;BME280;65076;52.362;6.588;2023-10-09T20:07:14;102025.22;;;20.25;73.63
76260;BME280;65076;52.362;6.588;2023-10-09T20:12:20;102034.13;;;20.56;71.71
76260;BME280;65076;52.362;6.588;2023-10-09T20:17:22;102051.44;;;20.31;73.68
76260;BME280;65076;52.362;6.588;2023-10-09T20:19:56;102048.50;;;20.47;73.08
76260;BME280;65076;52.362;6.588;2023-10-09T20:33:03;102071.25;;;20.36;71.58
76260;BME280;65076;52.362;6.588;2023-10-09T20:38:05;102056.53;;;20.10;73.65
76260;BME280;65076;52.362;6.588;2023-10-09T20:43:22;102073.28;;;20.20;74.04
76260;BME280;65076;52.362;6.588;2023-10-09T20:48:28;102049.19;;;19.57;75.69
76260;BME280;65076;52.362;6.588;2023-10-09T20:53:31;102035.38;;;19.44;75.22
76260;BME280;65076;52.362;6.588;2023-10-09T20:58:41;102074.44;;;19.76;75.10
76260;BME280;65076;52.362;6.588;2023-10-09T21:01:22;102070.16;;;19.44;77.61
76260;BME280;65076;52.362;6.588;2023-10-09T21:09:03;102067.72;;;19.68;76.91
76260;BME280;65076;52.362;6.588;2023-10-09T21:14:11;102066.03;;;19.37;76.28
76260;BME280;65076;52.362;6.588;2023-10-09T21:16:43;102070.78;;;19.07;78.37
76260;BME280;65076;52.362;6.588;2023-10-09T21:24:18;102075.75;;;19.98;75.98
76260;BME280;65076;52.362;6.588;2023-10-09T21:36:52;102060.06;;;19.85;76.41
76260;BME280;65076;52.362;6.588;2023-10-09T21:41:56;102055.13;;;18.94;78.33
76260;BME280;65076;52.362;6.588;2023-10-09T21:49:29;102075.41;;;19.75;77.38
76260;BME280;65076;52.362;6.588;2023-10-09T21:52:02;102056.97;;;19.77;74.74
76260;BME280;65076;52.362;6.588;2023-10-09T21:54:35;102058.72;;;18.95;77.63
76260;BME280;65076;52.362;6.588;2023-10-09T22:02:15;102073.41;;;19.22;78.29
76260;BME280;65076;52.362;6.588;2023-10-09T22:09:48;102077.13;;;19.21;79.36
76260;BME280;65076;52.362;6.588;2023-10-09T22:14:53;102047.75;;;18.95;78.91
76260;BME280;65076;52.362;6.588;2023-10-09T22:17:34;102067.44;;;19.01;80.05
76260;BME280;65076;52.362;6.588;2023-10-09T22:25:16;102058.44;;;19.14;79.82
76260;BME280;65076;52.362;6.588;2023-10-09T22:32:53;102033.53;;;18.74;81.35
76260;BME280;65076;52.362;6.588;2023-10-09T22:38:00;102053.53;;;19.19;79.12
76260;BME280;65076;52.362;6.588;2023-10-09T22:43:03;102057.25;;;18.75;80.99
76260;BME280;65076;52.362;6.588;2023-10-09T22:50:46;102064.72;;;18.73;81.67
76260;BME280;65076;52.362;6.588;2023-10-09T22:55:58;102058.63;;;18.68;81.82
76260;BME280;65076;52.362;6.588;2023-10-09T23:00:59;102052.94;;;18.71;81.47
76260;BME280;65076;52.362;6.588;2023-10-09T23:11:07;102050.50;;;18.67;81.57
76260;BME280;65076;52.362;6.588;2023-10-09T23:16:21;102027.09;;;18.75;80.53
76260;BME280;65076;52.362;6.588;2023-10-09T23:19:02;102034.81;;;18.69;80.48
76260;BME280;65076;52.362;6.588;2023-10-09T23:27:16;102039.22;;;18.85;82.26
76260;BME280;65076;52.362;6.588;2023-10-09T23:30:07;102047.28;;;19.02;80.63
76260;BME280;65076;52.362;6.588;2023-10-09T23:40:13;102049.28;;;18.27;83.63
76260;BME280;65076;52.362;6.588;2023-10-09T23:45:23;102053.25;;;18.37;83.99
76260;BME280;65076;52.362;6.588;2023-10-09T23:47:58;102055.59;;;18.43;83.41
76260;BME280;65076;52.362;6.588;2023-10-09T23:50:46;102045.94;;;18.51;83.58
